»·PEaware :: N7GL KSBA-KSNA

N7GL :: KSBA-KSNA

FLIGHT INFORMATION

Flight Status: Arrived
Operator: Privately registered:
United States
More flights under this callsign
Pilot: Georg L. (13308)
Aircraft: BEECH AIRCRAFT SUPER KING AIR 350
(B350)
More flights by this aircraft type
Origin: KSBA Santa Barbara Mun
United States
Destination: KSNA John Wayne-Orange Co
United States
More flights between these airports :: More routes between these airports
Route: +KWANG VTU V27 SXC SLI
File this flight plan on PilotEdge
Remarks:
Altitude:
(Current/Filed)
17,000ft
Speed:
(Current/Filed)
294kts
Departed: 30-Aug-20 10:28 AM
Arrived: 30-Aug-20 11:12 AM
Distance/Time
Traveled:
108nm/0:44
Distance/Time
To Go:
Arrived

Flight Plot

Page will automatically refresh every two minutes.

Flight plan parsing failed; only flown route is shown


Map Options




Map Legend


Flown Route
Filed Route
Departure Airport
Arrival Airport
Navaid (VOR, NDB)
Fix

Horizontal Profiles

Position Reports

Time Latitude Longitude Heading Altitude Ground
Speed
30-Aug-20 10:02 34.432845 -119.836176 201 15ft 0kts
30-Aug-20 10:03 34.432845 -119.836176 201 15ft 0kts
30-Aug-20 10:04 34.432845 -119.836176 201 15ft 0kts
30-Aug-20 10:05 34.432845 -119.836176 201 15ft 0kts
30-Aug-20 10:06 34.432845 -119.836176 201 15ft 0kts
30-Aug-20 10:07 34.432845 -119.836176 201 15ft 0kts
30-Aug-20 10:08 34.432845 -119.836176 202 15ft 0kts
30-Aug-20 10:09 34.432845 -119.836176 201 15ft 0kts
30-Aug-20 10:10 34.432845 -119.836176 201 15ft 0kts
30-Aug-20 10:11 34.432845 -119.836176 201 15ft 0kts
30-Aug-20 10:12 34.432845 -119.836176 201 15ft 0kts
30-Aug-20 10:13 34.432845 -119.836176 201 15ft 0kts
30-Aug-20 10:14 34.432845 -119.836176 201 15ft 0kts
30-Aug-20 10:15 34.432845 -119.836176 201 15ft 0kts
30-Aug-20 10:16 34.432845 -119.836176 201 15ft 0kts
30-Aug-20 10:17 34.432845 -119.836176 201 15ft 0kts
30-Aug-20 10:18 34.432845 -119.836176 201 15ft 0kts
30-Aug-20 10:19 34.431649 -119.836560 249 15ft 12kts
30-Aug-20 10:20 34.429775 -119.839287 165 15ft 11kts
30-Aug-20 10:21 34.428603 -119.838946 166 15ft 0kts
30-Aug-20 10:23 34.428602 -119.838945 166 15ft 0kts
30-Aug-20 10:24 34.428603 -119.838946 166 15ft 0kts
30-Aug-20 10:25 34.426856 -119.838543 202 15ft 9kts
30-Aug-20 10:26 34.426572 -119.844808 270 15ft 24kts
30-Aug-20 10:27 34.426420 -119.852233 269 15ft 17kts
30-Aug-20 10:28 34.427565 -119.851698 89 15ft 62kts
30-Aug-20 10:29 34.426065 -119.807669 132 1309ft 165kts
30-Aug-20 10:30 34.393591 -119.764175 131 3037ft 199kts
30-Aug-20 10:31 34.350527 -119.707497 135 3060ft 247kts
30-Aug-20 10:32 34.293996 -119.671142 151 4709ft 214kts
30-Aug-20 10:33 34.246240 -119.643090 151 6591ft 183kts
30-Aug-20 10:34 34.199871 -119.616115 151 8279ft 185kts
30-Aug-20 10:35 34.148989 -119.586189 151 9021ft 237kts
30-Aug-20 10:36 34.085113 -119.547975 151 9004ft 269kts
30-Aug-20 10:37 34.016673 -119.506828 151 9001ft 279kts
30-Aug-20 10:37 33.958564 -119.471701 151 8999ft 281kts
30-Aug-20 10:39 33.878717 -119.423125 151 8995ft 269kts
30-Aug-20 10:40 33.811846 -119.382449 151 9001ft 274kts
30-Aug-20 10:41 33.744918 -119.341529 152 9002ft 278kts
30-Aug-20 10:41 33.707329 -119.293673 113 9004ft 277kts
30-Aug-20 10:43 33.674047 -119.195631 113 9001ft 278kts
30-Aug-20 10:44 33.642273 -119.111029 114 8998ft 278kts
30-Aug-20 10:44 33.615193 -119.040421 114 9000ft 279kts
30-Aug-20 10:45 33.582624 -118.955783 114 8990ft 280kts
30-Aug-20 10:46 33.549953 -118.871195 114 8982ft 280kts
30-Aug-20 10:47 33.517130 -118.786371 114 8971ft 280kts
30-Aug-20 10:48 33.484433 -118.702171 115 8972ft 277kts
30-Aug-20 10:49 33.450778 -118.615206 114 8962ft 290kts
30-Aug-20 10:50 33.419555 -118.530432 96 8965ft 270kts
30-Aug-20 10:51 33.448651 -118.449879 61 9038ft 268kts
30-Aug-20 10:52 33.485057 -118.370757 61 8999ft 272kts
30-Aug-20 10:53 33.521026 -118.292541 61 8999ft 272kts
30-Aug-20 10:54 33.557679 -118.212822 61 8999ft 272kts
30-Aug-20 10:55 33.594233 -118.133309 61 8999ft 272kts
30-Aug-20 10:56 33.630790 -118.053779 61 8999ft 272kts
30-Aug-20 10:57 33.667913 -117.973284 57 8237ft 283kts
30-Aug-20 10:58 33.729963 -117.922725 31 6727ft 265kts
30-Aug-20 10:59 33.791871 -117.878634 31 5345ft 252kts
30-Aug-20 11:00 33.848828 -117.837633 31 4998ft 226kts
30-Aug-20 11:01 33.903049 -117.798584 31 4999ft 226kts
30-Aug-20 11:02 33.956778 -117.759873 31 4993ft 220kts
30-Aug-20 11:03 33.982638 -117.706824 123 4789ft 213kts
30-Aug-20 11:04 33.925013 -117.699413 213 3345ft 230kts
30-Aug-20 11:05 33.877033 -117.741174 208 2979ft 184kts
30-Aug-20 11:06 33.832696 -117.769149 207 2903ft 179kts
30-Aug-20 11:07 33.789340 -117.796840 208 2526ft 177kts
30-Aug-20 11:08 33.746414 -117.823997 209 1499ft 164kts
30-Aug-20 11:09 33.710968 -117.846693 208 799ft 132kts
30-Aug-20 11:10 33.681310 -117.865240 210 108ft 106kts
30-Aug-20 11:11 33.669278 -117.871728 139 61ft 11kts
30-Aug-20 11:12 33.668998 -117.871416 140 61ft 5kts
30-Aug-20 11:13 33.665988 -117.873016 35 61ft 3kts
30-Aug-20 11:14 33.666041 -117.872984 28 61ft 0kts
30-Aug-20 11:15 33.666041 -117.872984 28 61ft 0kts
30-Aug-20 11:16 33.666041 -117.872984 28 61ft 0kts
30-Aug-20 11:17 33.666041 -117.872984 28 61ft 0kts
30-Aug-20 11:18 33.666041 -117.872984 28 61ft 0kts
30-Aug-20 11:19 33.666041 -117.872984 28 61ft 0kts
30-Aug-20 11:20 33.666041 -117.872984 28 61ft 0kts
30-Aug-20 11:21 33.666041 -117.872984 28 61ft 0kts
30-Aug-20 11:22 33.666041 -117.872984 28 61ft 0kts
30-Aug-20 11:23 33.666041 -117.872984 28 61ft 0kts
30-Aug-20 11:24 33.666041 -117.872984 28 61ft 0kts
30-Aug-20 11:25 33.666041 -117.872984 28 61ft 0kts

Navigation Log

Ident Type
Flight plan parsing failed, navigation log unavailable